createdAt,value
2022-07-29T00:01:19.046Z,50.86
2022-07-29T00:03:51.892Z,50.85
2022-07-29T00:06:24.099Z,51.26
2022-07-29T00:08:56.449Z,51.43
2022-07-29T00:11:28.697Z,51.05
2022-07-29T00:14:01.210Z,51.15
2022-07-29T00:16:33.536Z,51.71
2022-07-29T00:19:08.504Z,51.13
2022-07-29T00:21:40.777Z,51.04
2022-07-29T00:24:13.991Z,50.47
2022-07-29T00:26:46.276Z,51.04
2022-07-29T00:29:33.708Z,51.08
2022-07-29T00:32:07.535Z,50.57
2022-07-29T00:34:57.484Z,50.88
2022-07-29T00:37:29.754Z,50.88
2022-07-29T00:40:01.925Z,50.96
2022-07-29T00:42:43.471Z,50.95
2022-07-29T00:45:18.526Z,51.64
2022-07-29T00:47:49.253Z,51.74
2022-07-29T00:50:24.722Z,51.69
2022-07-29T00:52:57.678Z,50.99
2022-07-29T00:55:30.193Z,50.93
2022-07-29T00:58:04.049Z,51.07
2022-07-29T01:00:38.031Z,51.05
2022-07-29T01:03:10.444Z,51.55
2022-07-29T01:05:50.458Z,52.35
2022-07-29T01:08:26.206Z,52.10
2022-07-29T01:10:59.127Z,51.77
2022-07-29T01:13:34.345Z,52.43
2022-07-29T01:16:12.680Z,52.05
2022-07-29T01:18:49.114Z,52.52
2022-07-29T01:21:45.376Z,52.50
2022-07-29T01:24:36.050Z,52.25
2022-07-29T01:27:25.445Z,52.39
2022-07-29T01:30:01.077Z,52.68
2022-07-29T01:32:40.787Z,53.20
2022-07-29T01:35:19.704Z,52.97
2022-07-29T01:37:59.024Z,52.73
2022-07-29T01:40:35.658Z,52.70
2022-07-29T01:43:15.021Z,52.82
2022-07-29T01:45:50.229Z,53.20
2022-07-29T01:48:26.900Z,53.10
2022-07-29T01:51:04.553Z,53.46
2022-07-29T01:53:42.518Z,53.92
2022-07-29T01:56:15.717Z,53.95
2022-07-29T01:58:49.813Z,54.22
2022-07-29T02:01:24.119Z,54.63
2022-07-29T02:03:59.373Z,54.74
2022-07-29T02:06:35.423Z,55.37
2022-07-29T02:09:09.245Z,55.57
2022-07-29T02:11:42.839Z,55.41
2022-07-29T02:14:16.707Z,55.36
2022-07-29T02:16:55.550Z,55.72
2022-07-29T02:19:30.121Z,56.15
2022-07-29T02:22:04.520Z,56.43
2022-07-29T02:24:39.736Z,56.82
2022-07-29T02:27:13.138Z,56.65
2022-07-29T02:29:47.737Z,56.90
2022-07-29T02:32:23.258Z,57.03
2022-07-29T02:34:58.107Z,57.52
2022-07-29T02:37:31.762Z,57.42
2022-07-29T02:40:06.371Z,57.66
2022-07-29T02:42:41.079Z,57.54
2022-07-29T02:45:14.794Z,58.01
2022-07-29T02:47:52.121Z,58.06
2022-07-29T02:50:33.956Z,58.44
2022-07-29T02:53:11.369Z,58.58
2022-07-29T02:55:52.962Z,58.75
2022-07-29T02:58:31.462Z,59.10
2022-07-29T03:01:06.627Z,59.29
2022-07-29T03:03:42.372Z,59.37
2022-07-29T03:06:37.459Z,58.77
2022-07-29T03:09:13.746Z,59.42
2022-07-29T03:11:49.714Z,59.66
2022-07-29T03:14:26.732Z,60.29
2022-07-29T03:16:59.941Z,59.95
2022-07-29T03:19:33.667Z,60.16
2022-07-29T03:22:06.626Z,60.12
2022-07-29T03:24:40.422Z,59.87
2022-07-29T03:27:15.360Z,59.86
2022-07-29T03:29:49.938Z,60.15
2022-07-29T03:32:25.201Z,60.42
2022-07-29T03:35:00.189Z,60.04
2022-07-29T03:37:32.661Z,60.24
2022-07-29T03:40:09.715Z,60.32
2022-07-29T03:42:45.406Z,60.27
2022-07-29T03:45:21.335Z,60.48
2022-07-29T03:48:00.908Z,60.86
2022-07-29T03:50:35.369Z,60.42
2022-07-29T03:53:07.788Z,60.42
2022-07-29T03:55:44.955Z,60.50
2022-07-29T03:58:18.245Z,60.65
2022-07-29T04:00:51.326Z,61.00
2022-07-29T04:03:25.666Z,61.14
2022-07-29T04:06:08.989Z,60.76
2022-07-29T04:08:42.295Z,61.07
2022-07-29T04:11:14.930Z,61.28
2022-07-29T04:13:49.947Z,61.38
2022-07-29T04:16:23.348Z,61.61
2022-07-29T04:18:56.845Z,61.30
2022-07-29T04:21:29.386Z,61.20
2022-07-29T04:24:02.946Z,61.24
2022-07-29T04:26:36.966Z,61.50
2022-07-29T04:29:09.321Z,61.11
2022-07-29T04:31:42.359Z,61.28
2022-07-29T04:34:15.602Z,61.39
2022-07-29T04:36:50.074Z,61.79
2022-07-29T04:39:23.156Z,61.58
2022-07-29T04:41:56.459Z,61.75
2022-07-29T04:44:29.797Z,61.30
2022-07-29T04:47:02.524Z,61.57
2022-07-29T04:49:34.805Z,61.65
2022-07-29T04:52:08.080Z,61.74
2022-07-29T04:54:40.354Z,61.51
2022-07-29T04:57:12.831Z,61.17
2022-07-29T04:59:46.089Z,61.40
2022-07-29T05:02:23.113Z,61.38
2022-07-29T05:04:54.839Z,61.18
2022-07-29T05:07:27.162Z,61.22
2022-07-29T05:09:59.562Z,61.44
2022-07-29T05:12:31.924Z,61.58
2022-07-29T05:15:04.070Z,61.25
2022-07-29T05:17:36.419Z,61.33
2022-07-29T05:20:10.898Z,61.22
2022-07-29T05:22:43.083Z,61.14
2022-07-29T05:25:15.480Z,61.22
2022-07-29T05:27:47.796Z,61.14
2022-07-29T05:30:25.253Z,61.07
2022-07-29T05:32:57.660Z,61.23
2022-07-29T05:35:30.626Z,60.86
2022-07-29T05:38:02.978Z,60.74
2022-07-29T05:40:35.425Z,61.01
2022-07-29T05:43:07.536Z,60.63
2022-07-29T05:45:49.990Z,60.78
2022-07-29T05:48:23.329Z,60.94
2022-07-29T05:50:55.787Z,60.36
2022-07-29T05:53:28.269Z,60.10
2022-07-29T05:56:00.556Z,60.20
2022-07-29T05:58:33.175Z,60.45
2022-07-29T06:01:05.925Z,59.99
2022-07-29T06:03:38.936Z,60.06
2022-07-29T06:06:11.592Z,59.74
2022-07-29T06:08:44.117Z,59.42
2022-07-29T06:11:16.547Z,59.27
2022-07-29T06:13:48.662Z,59.17
2022-07-29T06:16:29.920Z,59.16
2022-07-29T06:19:02.607Z,59.02
2022-07-29T06:21:35.549Z,58.57
2022-07-29T06:24:13.515Z,58.27
2022-07-29T06:26:46.234Z,58.01
2022-07-29T06:29:18.445Z,57.75
2022-07-29T06:31:50.785Z,57.67
2022-07-29T06:34:23.280Z,57.34
2022-07-29T06:36:55.691Z,57.12
2022-07-29T06:39:29.110Z,56.78
2022-07-29T06:42:01.423Z,56.48
2022-07-29T06:44:34.908Z,55.86
2022-07-29T06:47:08.774Z,55.78
2022-07-29T06:49:40.940Z,55.04
2022-07-29T06:52:13.032Z,55.14
2022-07-29T06:54:49.138Z,54.88
2022-07-29T07:00:25.574Z,54.06
2022-07-29T07:02:58.105Z,53.77
2022-07-29T07:05:30.529Z,54.26
2022-07-29T07:08:02.800Z,54.71
2022-07-29T07:10:36.453Z,53.66
2022-07-29T07:13:08.978Z,52.83
2022-07-29T07:15:41.263Z,52.41
2022-07-29T07:18:13.506Z,52.30
2022-07-29T07:20:46.718Z,50.30
2022-07-29T07:23:19.028Z,50.05
2022-07-29T07:25:53.539Z,49.86
2022-07-29T07:28:25.789Z,49.66
2022-07-29T07:30:59.295Z,50.48
2022-07-29T07:33:33.431Z,49.91
2022-07-29T07:36:06.250Z,49.79
2022-07-29T07:38:38.551Z,51.00
2022-07-29T07:41:11.370Z,50.00
2022-07-29T07:43:44.060Z,50.07
2022-07-29T07:46:16.864Z,49.91
2022-07-29T07:48:49.717Z,51.31
2022-07-29T07:51:22.054Z,50.93
2022-07-29T07:53:54.332Z,50.61
2022-07-29T07:56:30.658Z,49.85
2022-07-29T07:59:05.863Z,49.64
2022-07-29T08:01:55.008Z,49.78
2022-07-29T08:04:29.601Z,50.22
2022-07-29T08:07:02.996Z,48.99
2022-07-29T08:09:35.604Z,49.29
2022-07-29T08:12:10.176Z,48.93
2022-07-29T08:14:42.475Z,49.32
2022-07-29T08:17:15.013Z,48.14
2022-07-29T08:19:49.383Z,46.67
2022-07-29T08:22:22.204Z,47.82
2022-07-29T08:24:55.694Z,48.17
2022-07-29T08:27:45.505Z,48.69
2022-07-29T08:30:17.899Z,48.31
2022-07-29T08:32:58.129Z,48.51
2022-07-29T08:35:35.071Z,47.92
2022-07-29T08:38:08.256Z,47.35
2022-07-29T08:40:41.843Z,46.59
2022-07-29T08:43:14.280Z,46.77
2022-07-29T08:45:48.640Z,47.65
2022-07-29T08:48:25.743Z,47.46
2022-07-29T08:50:59.264Z,47.46
2022-07-29T08:53:32.884Z,47.61
2022-07-29T08:56:05.445Z,47.75
2022-07-29T08:58:38.733Z,47.35
2022-07-29T09:01:13.952Z,46.64
2022-07-29T09:03:49.598Z,46.98
2022-07-29T09:06:28.976Z,46.84
2022-07-29T09:09:02.510Z,46.66
2022-07-29T09:11:36.386Z,46.08
2022-07-29T09:14:10.833Z,45.83
2022-07-29T09:16:53.661Z,45.99
2022-07-29T09:19:31.531Z,46.57
2022-07-29T09:22:06.142Z,46.70
2022-07-29T09:24:44.111Z,45.78
2022-07-29T09:27:30.036Z,46.02
2022-07-29T09:30:04.712Z,44.79
2022-07-29T09:32:35.861Z,44.10
2022-07-29T09:35:22.704Z,44.08
2022-07-29T09:37:55.662Z,44.55
2022-07-29T09:40:29.566Z,45.57
2022-07-29T09:43:11.853Z,44.37
2022-07-29T09:45:44.692Z,43.83
2022-07-29T09:48:22.195Z,43.61
2022-07-29T09:50:57.024Z,43.88
2022-07-29T09:53:35.230Z,43.23
2022-07-29T09:56:09.126Z,43.40
2022-07-29T09:58:42.033Z,42.26
2022-07-29T10:01:15.152Z,42.90
2022-07-29T10:03:56.125Z,42.74
2022-07-29T10:06:29.567Z,43.38
2022-07-29T10:09:13.246Z,42.35
2022-07-29T10:12:04.328Z,42.44
2022-07-29T10:14:37.418Z,42.66
2022-07-29T10:17:11.293Z,42.24
2022-07-29T10:19:45.364Z,41.48
2022-07-29T10:22:43.287Z,41.32
2022-07-29T10:25:12.259Z,41.61
2022-07-29T10:27:43.518Z,41.73
2022-07-29T10:30:17.487Z,41.36
2022-07-29T10:33:18.256Z,40.29
2022-07-29T10:36:04.411Z,39.67
2022-07-29T10:38:58.071Z,39.43
2022-07-29T10:41:47.763Z,38.75
2022-07-29T10:44:24.135Z,38.48
2022-07-29T10:46:57.051Z,37.87
2022-07-29T10:49:31.260Z,37.88
2022-07-29T10:52:09.596Z,37.19
2022-07-29T10:54:53.757Z,37.23
2022-07-29T10:57:53.926Z,36.87
2022-07-29T11:00:35.382Z,36.17
2022-07-29T11:03:10.803Z,35.78
2022-07-29T11:05:59.403Z,36.23
2022-07-29T11:08:32.255Z,36.08
2022-07-29T11:11:39.763Z,35.97
2022-07-29T11:14:16.640Z,34.11
2022-07-29T11:17:06.402Z,34.57
2022-07-29T11:19:44.745Z,34.01
2022-07-29T11:22:36.520Z,34.88
2022-07-29T11:25:19.231Z,35.14
2022-07-29T11:31:14.370Z,35.45
2022-07-29T11:36:59.448Z,35.77
2022-07-29T11:39:36.292Z,35.59
2022-07-29T11:42:46.566Z,35.40
2022-07-29T11:45:43.489Z,35.14
2022-07-29T11:48:28.352Z,34.93
2022-07-29T11:51:11.013Z,35.25
2022-07-29T11:53:52.452Z,35.17
2022-07-29T11:56:28.572Z,34.94
2022-07-29T11:59:08.410Z,35.00
2022-07-29T12:02:02.441Z,34.53
2022-07-29T12:04:53.943Z,34.65
2022-07-29T12:07:35.093Z,34.23
2022-07-29T12:10:11.441Z,34.13
2022-07-29T12:12:56.634Z,33.28
2022-07-29T12:15:46.298Z,33.69
2022-07-29T12:21:18.340Z,33.95
2022-07-29T12:24:05.465Z,33.59
2022-07-29T12:26:53.315Z,33.82
2022-07-29T12:29:35.030Z,33.84
2022-07-29T12:32:14.698Z,33.63
2022-07-29T12:34:52.214Z,32.81
2022-07-29T12:37:37.610Z,33.21
2022-07-29T12:40:17.642Z,32.17
2022-07-29T12:43:11.450Z,32.19
2022-07-29T12:45:46.688Z,32.73
2022-07-29T12:48:19.531Z,32.25
2022-07-29T12:51:01.004Z,32.35
2022-07-29T12:53:34.224Z,32.21
2022-07-29T12:59:25.963Z,32.35
2022-07-29T13:02:01.063Z,32.64
2022-07-29T13:04:37.940Z,32.56
2022-07-29T13:07:12.074Z,33.48
2022-07-29T13:09:48.138Z,33.18
2022-07-29T13:12:21.931Z,32.02
2022-07-29T13:14:54.161Z,31.82
2022-07-29T13:17:32.704Z,32.42
2022-07-29T13:20:13.625Z,32.18
2022-07-29T13:22:49.502Z,31.67
2022-07-29T13:25:30.045Z,30.98
2022-07-29T13:28:02.875Z,30.85
2022-07-29T13:30:35.611Z,30.52
2022-07-29T13:33:08.941Z,31.40
2022-07-29T13:35:41.449Z,32.48
2022-07-29T13:38:13.626Z,31.56
2022-07-29T13:40:47.477Z,32.02
2022-07-29T13:43:19.749Z,31.06
2022-07-29T13:45:52.069Z,30.76
2022-07-29T13:48:24.611Z,31.14
2022-07-29T13:50:56.929Z,30.08
2022-07-29T13:53:30.177Z,30.53
2022-07-29T13:56:02.580Z,30.81
2022-07-29T13:58:35.115Z,30.39
2022-07-29T14:01:07.254Z,30.04
2022-07-29T14:03:45.666Z,29.72
2022-07-29T14:06:18.398Z,29.18
2022-07-29T14:08:54.555Z,30.30
2022-07-29T14:11:26.836Z,30.35
2022-07-29T14:13:59.139Z,30.42
2022-07-29T14:16:31.439Z,30.67
2022-07-29T14:19:04.290Z,31.53
2022-07-29T14:21:36.969Z,31.65
2022-07-29T14:24:17.718Z,31.55
2022-07-29T14:26:54.087Z,30.87
2022-07-29T14:29:36.968Z,30.91
2022-07-29T14:32:12.584Z,30.57
2022-07-29T14:34:45.030Z,31.20
2022-07-29T14:37:17.385Z,31.88
2022-07-29T14:39:49.465Z,29.68
2022-07-29T14:42:22.046Z,30.28
2022-07-29T14:44:54.410Z,30.38
2022-07-29T14:47:27.533Z,30.50
2022-07-29T14:50:00.871Z,30.44
2022-07-29T14:52:33.103Z,30.37
2022-07-29T14:55:06.127Z,30.29
2022-07-29T14:57:56.387Z,30.02
2022-07-29T15:00:34.532Z,29.90
2022-07-29T15:03:06.930Z,29.01
2022-07-29T15:05:43.782Z,28.56
2022-07-29T15:08:15.971Z,28.10
2022-07-29T15:10:48.144Z,28.35
2022-07-29T15:13:20.866Z,29.65
2022-07-29T15:15:57.002Z,30.23
2022-07-29T15:18:32.743Z,29.06
2022-07-29T15:21:08.695Z,30.36
2022-07-29T15:23:41.090Z,30.30
2022-07-29T15:26:13.348Z,30.25
2022-07-29T15:28:45.623Z,29.65
2022-07-29T15:31:19.939Z,30.47
2022-07-29T15:33:57.581Z,30.31
2022-07-29T15:37:00.908Z,30.04
2022-07-29T15:39:23.470Z,30.40
2022-07-29T15:41:56.242Z,30.27
2022-07-29T15:44:28.909Z,31.12
2022-07-29T15:47:05.738Z,29.73
2022-07-29T15:49:48.434Z,30.41
2022-07-29T15:52:25.369Z,30.61
2022-07-29T15:54:59.201Z,29.98
2022-07-29T15:57:31.771Z,29.80
2022-07-29T16:00:04.774Z,29.94
2022-07-29T16:02:40.212Z,30.25
2022-07-29T16:05:12.823Z,30.61
2022-07-29T16:07:45.379Z,31.36
2022-07-29T16:10:17.542Z,31.41
2022-07-29T16:12:49.635Z,31.00
2022-07-29T16:15:21.897Z,31.42
2022-07-29T16:17:54.415Z,31.83
2022-07-29T16:20:26.685Z,30.81
2022-07-29T16:22:59.912Z,30.58
2022-07-29T16:25:57.430Z,30.97
2022-07-29T16:28:24.329Z,30.96
2022-07-29T16:30:57.472Z,30.41
2022-07-29T16:33:54.851Z,30.33
2022-07-29T16:36:22.893Z,30.64
2022-07-29T16:38:55.705Z,31.07
2022-07-29T16:41:29.841Z,30.97
2022-07-29T16:44:02.094Z,30.89
2022-07-29T16:46:37.843Z,32.22
2022-07-29T16:49:12.691Z,31.81
2022-07-29T16:51:51.558Z,31.86
2022-07-29T16:54:24.210Z,31.79
2022-07-29T16:56:57.737Z,32.07
2022-07-29T16:59:30.435Z,31.89
2022-07-29T17:02:03.627Z,32.44
2022-07-29T17:04:36.814Z,32.13
2022-07-29T17:07:09.574Z,32.01
2022-07-29T17:09:41.768Z,32.16
2022-07-29T17:12:13.854Z,32.49
2022-07-29T17:14:46.722Z,32.85
2022-07-29T17:17:20.958Z,33.13
2022-07-29T17:20:12.596Z,33.30
2022-07-29T17:22:50.086Z,33.51
2022-07-29T17:25:23.590Z,33.81
2022-07-29T17:28:00.693Z,33.91
2022-07-29T17:30:33.620Z,33.82
2022-07-29T17:33:06.239Z,34.03
2022-07-29T17:35:55.836Z,33.87
2022-07-29T17:38:28.299Z,34.15
2022-07-29T17:41:00.660Z,34.04
2022-07-29T17:43:33.080Z,33.94
2022-07-29T17:46:05.443Z,34.18
2022-07-29T17:48:38.017Z,34.13
2022-07-29T17:51:10.716Z,34.50
2022-07-29T17:53:43.002Z,34.66
2022-07-29T17:56:15.712Z,34.79
2022-07-29T17:58:48.853Z,34.93
2022-07-29T18:01:21.606Z,34.64
2022-07-29T18:03:57.200Z,34.80
2022-07-29T18:06:32.013Z,34.60
2022-07-29T18:09:04.707Z,34.25
2022-07-29T18:11:37.591Z,34.06
2022-07-29T18:14:11.405Z,34.23
2022-07-29T18:16:43.527Z,34.31
2022-07-29T18:19:16.494Z,34.15
2022-07-29T18:21:54.134Z,34.21
2022-07-29T18:24:29.470Z,34.39
2022-07-29T18:27:02.373Z,34.72
2022-07-29T18:29:35.035Z,34.87
2022-07-29T18:32:09.745Z,35.04
2022-07-29T18:34:40.476Z,35.29
2022-07-29T18:37:12.601Z,35.38
2022-07-29T18:39:44.782Z,35.40
2022-07-29T18:42:17.103Z,35.67
2022-07-29T18:44:49.878Z,35.63
2022-07-29T18:47:22.169Z,35.58
2022-07-29T18:49:54.439Z,35.89
2022-07-29T18:52:26.701Z,35.92
2022-07-29T18:54:58.987Z,36.37
2022-07-29T18:57:53.623Z,36.39
2022-07-29T19:00:24.908Z,36.72
2022-07-29T19:02:57.897Z,36.72
2022-07-29T19:05:30.311Z,36.93
2022-07-29T19:08:02.603Z,37.25
2022-07-29T19:10:34.809Z,37.43
2022-07-29T19:13:06.945Z,38.08
2022-07-29T19:15:39.280Z,37.82
2022-07-29T19:18:13.332Z,37.69
2022-07-29T19:20:45.620Z,38.10
2022-07-29T19:23:18.693Z,38.09
2022-07-29T19:25:53.726Z,38.23
2022-07-29T19:28:27.742Z,38.49
2022-07-29T19:31:00.787Z,38.49
2022-07-29T19:33:33.422Z,38.87
2022-07-29T19:36:05.857Z,38.93
2022-07-29T19:38:39.599Z,39.02
2022-07-29T19:41:13.073Z,39.23
2022-07-29T19:43:50.942Z,39.50
2022-07-29T19:46:29.034Z,39.47
2022-07-29T19:49:01.857Z,39.76
2022-07-29T19:51:34.131Z,39.77
2022-07-29T19:54:07.324Z,39.95
2022-07-29T19:56:42.072Z,40.22
2022-07-29T19:59:39.147Z,40.34
2022-07-29T20:02:12.555Z,40.57
2022-07-29T20:04:45.147Z,40.73
2022-07-29T20:07:18.317Z,40.67
2022-07-29T20:09:50.491Z,40.75
2022-07-29T20:12:23.650Z,41.13
2022-07-29T20:14:56.148Z,41.28
2022-07-29T20:17:29.014Z,41.38
2022-07-29T20:20:02.599Z,41.44
2022-07-29T20:22:35.055Z,41.89
2022-07-29T20:25:09.884Z,41.81
2022-07-29T20:27:43.148Z,41.97
2022-07-29T20:30:16.308Z,42.08
2022-07-29T20:32:50.660Z,42.09
2022-07-29T20:35:23.368Z,42.18
2022-07-29T20:37:56.852Z,42.30
2022-07-29T20:40:29.817Z,42.50
2022-07-29T20:43:02.266Z,42.40
2022-07-29T20:45:34.734Z,42.47
2022-07-29T20:48:08.238Z,42.70
2022-07-29T20:50:40.870Z,42.58
2022-07-29T20:53:14.996Z,42.65
2022-07-29T20:56:12.586Z,42.49
2022-07-29T21:01:43.748Z,42.77
2022-07-29T21:04:16.683Z,42.76
2022-07-29T21:06:48.945Z,42.79
2022-07-29T21:09:21.229Z,42.77
2022-07-29T21:11:54.023Z,42.81
2022-07-29T21:14:46.812Z,42.75
2022-07-29T21:17:22.743Z,42.80
2022-07-29T21:19:55.469Z,42.87
2022-07-29T21:22:27.844Z,42.86
2022-07-29T21:24:59.920Z,42.83
2022-07-29T21:27:49.920Z,42.83
2022-07-29T21:30:23.387Z,43.18
2022-07-29T21:32:56.636Z,43.03
2022-07-29T21:36:01.614Z,43.10
2022-07-29T21:38:22.661Z,43.10
2022-07-29T21:40:55.265Z,43.55
2022-07-29T21:43:28.703Z,43.77
2022-07-29T21:46:04.157Z,44.05
2022-07-29T21:48:37.624Z,43.98
2022-07-29T21:51:11.282Z,44.32
2022-07-29T21:53:43.651Z,44.43
2022-07-29T21:56:16.099Z,44.48
2022-07-29T21:58:50.819Z,44.35
2022-07-29T22:01:23.226Z,44.69
2022-07-29T22:03:55.857Z,44.63
2022-07-29T22:06:28.224Z,44.66
2022-07-29T22:09:00.379Z,44.75
2022-07-29T22:11:32.908Z,44.66
2022-07-29T22:14:05.179Z,44.68
2022-07-29T22:16:37.805Z,44.85
2022-07-29T22:19:10.397Z,44.57
2022-07-29T22:21:43.138Z,44.96
2022-07-29T22:24:15.529Z,44.84
2022-07-29T22:26:47.783Z,44.85
2022-07-29T22:29:20.175Z,44.89
2022-07-29T22:31:53.615Z,44.86
2022-07-29T22:34:29.090Z,44.93
2022-07-29T22:37:10.147Z,44.98
2022-07-29T22:39:42.187Z,45.13
2022-07-29T22:42:14.448Z,44.92
2022-07-29T22:44:46.681Z,45.09
2022-07-29T22:47:19.295Z,45.33
2022-07-29T22:50:12.267Z,45.43
2022-07-29T22:52:44.690Z,45.47
2022-07-29T22:55:18.573Z,45.45
2022-07-29T22:57:51.172Z,45.64
2022-07-29T23:00:24.263Z,45.78
2022-07-29T23:02:56.746Z,45.79
2022-07-29T23:05:29.097Z,45.76
2022-07-29T23:08:06.785Z,45.90
2022-07-29T23:10:38.917Z,45.76
2022-07-29T23:13:11.341Z,45.90
2022-07-29T23:15:44.402Z,45.91
2022-07-29T23:18:16.931Z,45.87
2022-07-29T23:20:49.015Z,45.85
2022-07-29T23:23:21.289Z,45.97
2022-07-29T23:25:53.698Z,46.06
2022-07-29T23:28:26.282Z,45.95
2022-07-29T23:30:59.596Z,46.20
2022-07-29T23:33:31.888Z,46.03
2022-07-29T23:36:04.758Z,46.20
2022-07-29T23:38:40.890Z,46.06
2022-07-29T23:41:15.004Z,46.07
2022-07-29T23:43:47.141Z,46.37
2022-07-29T23:46:19.359Z,46.46
2022-07-29T23:48:56.293Z,46.40
2022-07-29T23:51:29.706Z,46.46
2022-07-29T23:54:01.843Z,46.53
2022-07-29T23:56:34.039Z,46.60
2022-07-29T23:59:06.343Z,46.45
